Nearby METAR Reports

KLWM - Lawrence,MA, USA
Distance from station: NE 12mi, 19km
Updated: Mon, 22-Oct-2018 3:54am EDT
Clear
Clear
 Wind from SW
Wind: SW 5 mph , 7 km/h
Temperature: 34°F , 1°C
Wind Chill: 29°F , -2°C
Dew Point: 21°F , -6°C
Humidity: 60%
Barometer: 30.13 inHg , 1020.3 hPa
Clouds: Clear
Visibility: 10 miles , 16 km
2018/10/22 07:54 KLWM 220754Z AUTO 22004KT 10SM CLR 01/M06 A3013 RMK AO2 SLP203 T00061061
KBED - Bedford,MA, USA
Distance from station: SSE 12mi, 19km
Updated: Mon, 22-Oct-2018 3:56am EDT
Clear
Clear
 Wind from WSW
Wind: WSW 6 mph , 9 km/h
Temperature: 27°F , -3°C
Wind Chill: 20°F , -7°C
Dew Point: 19°F , -7°C
Humidity: 74%
Barometer: 30.11 inHg , 1019.6 hPa
Clouds: Clear
Visibility: 10 miles , 16 km
2018/10/22 07:56 KBED 220756Z AUTO 24005KT 10SM CLR M03/M07 A3011 RMK AO2 SLP213 T10281067

Metar display script from Saratoga-Weather.org